Bayview, Wisconsin
Current Conditions -  °F | °C
As of 9:52 AM on Friday 19 Dec 2014 (Local Time) from KMKE Reporting Station
Scattered Clouds Scattered Clouds  
Wind Chill: 21°   Ceiling: Unl
Heat Index: 29°   Visibility: 10mi
Dew Point: 18°   Wind: 8mph
Humidity: 64%   Direction: 300°WNW
Pressure: 30.3"   Gusts: NA
Location:  42.9708°N, 87.8754°W
Report Text: KMKE 191552Z 30007KT 10SM SCT028 M02/M08 A3030 RMK AO2 SLP272 T10171078
Loading
Personal Weather Stations






























Interactive Weather Map New forecast layout! Learn more

10-Day Weather Forecast

Advertisements
Track Severe Weather on mobile